Time;durP1;ratioP1;P1;durP2;ratioP2;P2;SDS_P1;SDS_P2;PMS_P1;PMS_P2;Temp;Humidity;BMP_temperature;BMP_pressure;BME280_temperature;BME280_humidity;BME280_pressure;Samples;Min_cycle;Max_cycle;Signal;HPM_P1;HPM_P2
2022/03/15 00:01:51;;;;;;;7.33;3.20;;;;;;;3.94;100.00;97309.00;5044647;28;20033;-87
2022/03/15 00:04:27;;;;;;;11.07;4.20;;;;;;;3.91;100.00;97307.41;5035440;28;20471;-87
2022/03/15 00:06:53;;;;;;;9.33;3.60;;;;;;;3.93;100.00;97312.56;5028763;28;20037;-87
2022/03/15 00:09:35;;;;;;;8.07;3.13;;;;;;;3.87;100.00;97305.94;5047347;28;21186;-87
2022/03/15 00:12:01;;;;;;;10.33;3.90;;;;;;;3.90;100.00;97303.16;5035790;28;20486;-87
2022/03/15 00:14:47;;;;;;;8.53;4.30;;;;;;;3.91;100.00;97310.03;5035421;28;20593;-88
2022/03/15 00:17:13;;;;;;;9.03;3.50;;;;;;;3.78;100.00;97314.28;5030924;28;20443;-87
2022/03/15 00:19:39;;;;;;;9.40;3.90;;;;;;;3.81;100.00;97313.28;5038852;28;20494;-88
2022/03/15 00:22:06;;;;;;;6.90;3.40;;;;;;;3.85;100.00;97318.19;5045918;28;20488;-87
2022/03/15 00:24:37;;;;;;;10.90;3.50;;;;;;;3.79;100.00;97318.56;5038695;28;20459;-87
2022/03/15 00:27:03;;;;;;;7.50;3.23;;;;;;;3.87;100.00;97311.16;5034298;28;21003;-88
2022/03/15 00:29:30;;;;;;;8.37;3.17;;;;;;;3.94;100.00;97309.84;5035584;28;20451;-88
2022/03/15 00:32:08;;;;;;;8.93;2.87;;;;;;;3.97;100.00;97321.84;5051572;28;20467;-88
2022/03/15 00:34:34;;;;;;;6.90;2.97;;;;;;;3.95;100.00;97323.69;5072005;28;20474;-87
2022/03/15 00:36:59;;;;;;;7.97;3.10;;;;;;;3.99;100.00;97327.78;5034309;28;20816;-88
2022/03/15 00:39:25;;;;;;;8.13;3.57;;;;;;;3.98;100.00;97323.50;5039783;28;20463;-88
2022/03/15 00:41:51;;;;;;;8.70;3.13;;;;;;;4.01;100.00;97321.56;5034840;28;20082;-88
2022/03/15 00:44:18;;;;;;;11.73;3.10;;;;;;;4.04;100.00;97324.91;5041812;28;20033;-88
2022/03/15 00:46:44;;;;;;;5.57;2.23;;;;;;;4.08;100.00;97326.41;5031158;28;20106;-88
2022/03/15 00:49:10;;;;;;;11.23;3.03;;;;;;;4.03;100.00;97321.47;5029966;28;20815;-87
2022/03/15 00:51:37;;;;;;;8.60;3.10;;;;;;;4.05;100.00;97319.59;5043371;28;20409;-88
2022/03/15 00:54:03;;;;;;;8.80;2.93;;;;;;;4.07;100.00;97324.72;5045230;28;20538;-88
2022/03/15 00:56:47;;;;;;;6.27;2.70;;;;;;;4.10;100.00;97324.56;5022303;28;20541;-88
2022/03/15 00:59:15;;;;;;;10.10;2.70;;;;;;;4.04;100.00;97325.75;5038483;28;20040;-88
2022/03/15 01:01:41;;;;;;;6.80;2.70;;;;;;;4.00;100.00;97313.84;5037462;28;20501;-87
2022/03/15 01:04:12;;;;;;;6.17;3.07;;;;;;;4.02;100.00;97311.97;5036270;28;20067;-88
2022/03/15 01:06:38;;;;;;;7.77;2.53;;;;;;;3.96;100.00;97308.00;5038263;28;20124;-88
2022/03/15 01:09:10;;;;;;;9.53;3.50;;;;;;;4.03;100.00;97299.81;5037249;28;20061;-88
2022/03/15 01:11:37;;;;;;;5.90;2.80;;;;;;;4.00;100.00;97299.06;5033635;28;20533;-87
2022/03/15 01:14:20;;;;;;;6.90;3.20;;;;;;;4.08;100.00;97297.75;5031246;28;20594;-88
2022/03/15 01:16:46;;;;;;;8.93;2.97;;;;;;;4.06;100.00;97299.63;5034747;28;21196;-87
2022/03/15 01:19:12;;;;;;;8.93;2.77;;;;;;;4.15;100.00;97291.25;5018120;28;20455;-88
2022/03/15 01:21:39;;;;;;;9.27;3.40;;;;;;;4.12;100.00;97286.22;5029984;28;21420;-88
2022/03/15 01:24:13;;;;;;;7.00;2.50;;;;;;;4.16;100.00;97282.53;5024829;28;20456;-88
2022/03/15 01:26:39;;;;;;;8.00;3.00;;;;;;;4.14;100.00;97282.59;5014738;28;20048;-88
2022/03/15 01:29:05;;;;;;;7.67;3.10;;;;;;;4.15;100.00;97286.03;5018107;28;20447;-88
2022/03/15 01:31:32;;;;;;;6.07;2.40;;;;;;;4.17;100.00;97273.78;5018208;28;20025;-88
2022/03/15 01:33:58;;;;;;;8.90;3.00;;;;;;;4.15;100.00;97278.25;5013961;28;20464;-87
2022/03/15 01:36:23;;;;;;;7.93;3.00;;;;;;;4.15;100.00;97280.84;5010008;28;20033;-87
2022/03/15 01:38:53;;;;;;;9.17;3.07;;;;;;;4.15;100.00;97270.44;5017868;28;20451;-87
2022/03/15 01:41:22;;;;;;;10.97;3.07;;;;;;;4.15;100.00;97254.81;5035572;28;20033;-87
2022/03/15 01:43:48;;;;;;;8.90;2.77;;;;;;;4.12;100.00;97253.22;5033928;28;20459;-87
2022/03/15 01:46:16;;;;;;;11.17;2.80;;;;;;;4.14;100.00;97258.34;5021017;28;20447;-87
2022/03/15 01:48:42;;;;;;;9.63;2.70;;;;;;;4.16;100.00;97254.72;5020815;28;20564;-88
2022/03/15 01:51:09;;;;;;;6.73;2.33;;;;;;;4.22;100.00;97250.88;5018867;28;20613;-87
2022/03/15 01:53:37;;;;;;;8.13;2.60;;;;;;;4.25;100.00;97255.91;5035782;28;20542;-87
2022/03/15 01:56:07;;;;;;;10.77;2.77;;;;;;;4.28;100.00;97254.88;5012132;28;20460;-87
2022/03/15 01:58:33;;;;;;;7.50;2.83;;;;;;;4.23;100.00;97249.97;5004480;28;20478;-88
2022/03/15 02:01:04;;;;;;;6.43;3.03;;;;;;;4.29;100.00;97251.34;5023398;28;20036;-88
2022/03/15 02:03:30;;;;;;;6.47;2.57;;;;;;;4.26;100.00;97252.41;5033343;28;20477;-88
2022/03/15 02:05:56;;;;;;;7.27;2.60;;;;;;;4.22;100.00;97256.94;5017225;28;21001;-88
2022/03/15 02:08:22;;;;;;;6.80;2.53;;;;;;;4.18;100.00;97252.00;5019420;28;20580;-87
2022/03/15 02:10:47;;;;;;;8.20;2.70;;;;;;;4.27;100.00;97243.66;5033582;28;20037;-87
2022/03/15 02:13:14;;;;;;;7.67;2.57;;;;;;;4.28;100.00;97236.66;5016424;28;20040;-88
2022/03/15 02:15:40;;;;;;;8.13;2.57;;;;;;;4.28;100.00;97234.88;5019370;28;20029;-87
2022/03/15 02:18:06;;;;;;;9.30;2.93;;;;;;;4.27;100.00;97235.84;5037645;28;20082;-87
2022/03/15 02:20:32;;;;;;;9.73;2.70;;;;;;;4.26;100.00;97228.97;5054217;28;20490;-88
2022/03/15 02:22:58;;;;;;;7.43;2.50;;;;;;;4.23;100.00;97221.34;5033343;28;20032;-88
2022/03/15 02:25:24;;;;;;;9.17;3.00;;;;;;;4.21;100.00;97218.81;5029356;28;20041;-87
2022/03/15 02:27:51;;;;;;;7.13;2.70;;;;;;;4.19;100.00;97220.69;5033216;28;20706;-87
2022/03/15 02:30:17;;;;;;;9.90;2.90;;;;;;;4.24;100.00;97223.00;5029350;28;20048;-88
2022/03/15 02:32:47;;;;;;;7.80;2.87;;;;;;;4.23;100.00;97213.53;5053633;28;20402;-87
2022/03/15 02:35:27;;;;;;;13.23;3.93;;;;;;;4.17;100.00;97213.91;5041784;28;20451;-88
2022/03/15 02:37:52;;;;;;;10.63;3.43;;;;;;;4.21;100.00;97212.78;5046060;28;20459;-87
2022/03/15 02:40:18;;;;;;;6.57;2.50;;;;;;;4.21;100.00;97215.38;5033543;28;20124;-87
2022/03/15 02:42:56;;;;;;;7.23;2.70;;;;;;;4.23;100.00;97221.34;5029293;28;20098;-87
2022/03/15 02:45:22;;;;;;;9.00;3.23;;;;;;;4.22;100.00;97209.22;5026677;28;20028;-86
2022/03/15 02:48:15;;;;;;;9.73;3.13;;;;;;;4.20;100.00;97213.72;5028346;28;20463;-87
2022/03/15 02:50:41;;;;;;;5.87;2.47;;;;;;;4.17;100.00;97212.13;5034582;28;20902;-88
2022/03/15 02:53:08;;;;;;;8.67;2.87;;;;;;;4.15;100.00;97210.56;5040521;28;20072;-88
2022/03/15 02:55:34;;;;;;;6.57;2.63;;;;;;;4.15;100.00;97208.78;5030740;28;20031;-88
2022/03/15 02:58:02;;;;;;;7.07;2.87;;;;;;;4.21;100.00;97207.56;5039205;28;20529;-88
2022/03/15 03:00:34;;;;;;;8.97;2.30;;;;;;;4.21;100.00;97212.78;5053925;28;20110;-88
2022/03/15 03:03:02;;;;;;;11.75;3.75;;;;;;;4.15;100.00;97206.19;5041734;28;20028;-88
2022/03/15 03:05:28;;;;;;;9.83;2.60;;;;;;;4.16;100.00;97204.44;5049245;28;20059;-88
2022/03/15 03:08:04;;;;;;;7.73;2.90;;;;;;;4.10;100.00;97204.81;5041626;28;21101;-88
2022/03/15 03:10:33;;;;;;;9.23;2.80;;;;;;;4.09;100.00;97208.31;5051246;28;20044;-88
2022/03/15 03:13:08;;;;;;;7.70;2.63;;;;;;;4.12;100.00;97208.13;5038272;28;20506;-88
2022/03/15 03:15:34;;;;;;;9.40;2.97;;;;;;;4.10;100.00;97210.00;5035066;28;20554;-88
2022/03/15 03:18:00;;;;;;;6.57;2.43;;;;;;;4.10;100.00;97207.41;5039690;28;20442;-87
2022/03/15 03:20:27;;;;;;;8.30;3.00;;;;;;;4.11;100.00;97201.25;5029195;28;20124;-88
2022/03/15 03:23:08;;;;;;;10.33;3.70;;;;;;;4.15;100.00;97205.34;5020750;28;20121;-88
2022/03/15 03:25:36;;;;;;;7.60;2.53;;;;;;;4.17;100.00;97209.53;5012577;28;20029;-88
2022/03/15 03:28:03;;;;;;;9.50;2.83;;;;;;;4.17;100.00;97219.13;5007355;28;20127;-88
2022/03/15 03:30:31;;;;;;;6.57;2.30;;;;;;;4.18;100.00;97213.78;5021454;28;21028;-88
2022/03/15 03:32:57;;;;;;;5.80;2.73;;;;;;;4.18;100.00;97212.97;5020529;28;20466;-87
2022/03/15 03:35:24;;;;;;;9.20;2.70;;;;;;;4.15;100.00;97207.94;5019753;28;20464;-87
2022/03/15 03:37:49;;;;;;;6.80;2.57;;;;;;;4.11;100.00;97209.06;5021616;28;20068;-87
2022/03/15 03:40:16;;;;;;;8.90;3.00;;;;;;;4.12;100.00;97202.94;5013003;28;20455;-87
2022/03/15 03:42:42;;;;;;;7.43;2.77;;;;;;;4.13;100.00;97210.66;5021306;28;20032;-87
2022/03/15 03:45:08;;;;;;;6.67;2.47;;;;;;;4.11;100.00;97209.06;5036720;28;20033;-88
2022/03/15 03:47:34;;;;;;;6.50;2.90;;;;;;;4.00;100.00;97194.97;5012926;28;20029;-88
2022/03/15 03:50:06;;;;;;;9.80;3.03;;;;;;;4.09;100.00;97203.13;5025303;28;20116;-88
2022/03/15 03:52:38;;;;;;;8.93;2.60;;;;;;;4.09;100.00;97200.50;5038023;28;20045;-87
2022/03/15 03:55:12;;;;;;;7.83;3.73;;;;;;;4.07;100.00;97195.41;5017364;28;20463;-88
2022/03/15 03:57:38;;;;;;;7.67;2.90;;;;;;;4.06;100.00;97192.88;5012688;28;20025;-87
2022/03/15 04:00:06;;;;;;;9.50;3.10;;;;;;;4.04;100.00;97185.19;5022079;28;20977;-87
2022/03/15 04:02:38;;;;;;;9.33;2.53;;;;;;;3.99;100.00;97184.63;5034403;28;20056;-87
2022/03/15 04:05:04;;;;;;;6.43;2.70;;;;;;;3.99;100.00;97180.28;5019730;28;20039;-87
2022/03/15 04:07:30;;;;;;;9.40;2.80;;;;;;;4.02;100.00;97176.63;5024497;28;20115;-87
2022/03/15 04:09:56;;;;;;;8.00;2.40;;;;;;;3.94;100.00;97169.31;5018849;28;20115;-88
2022/03/15 04:12:23;;;;;;;7.53;2.77;;;;;;;3.99;100.00;97171.63;5003700;28;20033;-87
2022/03/15 04:14:49;;;;;;;9.30;3.27;;;;;;;3.95;100.00;97164.94;5012202;28;20047;-88
2022/03/15 04:17:16;;;;;;;8.63;3.00;;;;;;;3.93;100.00;97174.63;5016418;28;20116;-87
2022/03/15 04:19:42;;;;;;;7.10;2.80;;;;;;;3.88;100.00;97164.47;5023578;28;20583;-88
2022/03/15 04:22:08;;;;;;;9.47;3.13;;;;;;;3.94;100.00;97158.91;5027830;28;20531;-87
2022/03/15 04:24:34;;;;;;;8.07;3.60;;;;;;;3.90;100.00;97162.63;5003238;28;20041;-88
2022/03/15 04:27:00;;;;;;;11.37;3.70;;;;;;;3.87;100.00;97164.59;5014378;28;20095;-87
2022/03/15 04:29:26;;;;;;;9.13;3.03;;;;;;;3.92;100.00;97160.78;5016295;28;20044;-87
2022/03/15 04:31:52;;;;;;;10.13;2.83;;;;;;;3.86;100.00;97161.16;5013679;28;20040;-87
2022/03/15 04:34:18;;;;;;;9.13;2.83;;;;;;;3.88;100.00;97155.84;5027568;28;20471;-88
2022/03/15 04:36:45;;;;;;;8.17;3.10;;;;;;;3.88;100.00;97155.84;5012159;28;21383;-87
2022/03/15 04:39:11;;;;;;;8.10;3.17;;;;;;;3.85;100.00;97153.44;5034320;28;20534;-88
2022/03/15 04:41:38;;;;;;;8.07;3.67;;;;;;;3.87;100.00;97156.78;5009308;28;20437;-88
2022/03/15 04:44:05;;;;;;;10.17;3.57;;;;;;;3.88;100.00;97154.06;5026400;28;20188;-88
2022/03/15 04:46:32;;;;;;;9.80;4.27;;;;;;;3.82;100.00;97158.81;5018187;28;20452;-88
2022/03/15 04:48:58;;;;;;;8.87;3.30;;;;;;;3.77;100.00;97151.31;5030360;28;20456;-88
2022/03/15 04:51:25;;;;;;;12.40;6.60;;;;;;;3.80;100.00;97161.53;5012151;28;20468;-88
2022/03/15 04:53:51;;;;;;;10.53;4.93;;;;;;;3.82;100.00;97156.22;5011810;28;20033;-88
2022/03/15 04:56:18;;;;;;;7.87;3.47;;;;;;;3.77;100.00;97159.94;5017314;28;20460;-88
2022/03/15 04:58:44;;;;;;;10.00;4.30;;;;;;;3.81;100.00;97160.59;5004937;28;20475;-88
2022/03/15 05:01:10;;;;;;;8.07;3.33;;;;;;;3.88;100.00;97153.25;5017492;28;20463;-87
2022/03/15 05:04:07;;;;;;;8.73;3.57;;;;;;;3.90;100.00;97156.59;5016518;28;20037;-86
2022/03/15 05:06:33;;;;;;;9.73;2.83;;;;;;;3.88;100.00;97156.69;5017195;28;20026;-88
2022/03/15 05:08:59;;;;;;;9.97;3.70;;;;;;;3.86;100.00;97158.56;5029263;28;20029;-87
2022/03/15 05:11:27;;;;;;;7.90;3.63;;;;;;;3.91;100.00;97148.69;4996544;28;20551;-88
2022/03/15 05:13:53;;;;;;;7.70;3.90;;;;;;;3.96;100.00;97151.03;5034153;28;20511;-88
2022/03/15 05:16:22;;;;;;;7.67;3.20;;;;;;;3.95;100.00;97152.75;4998573;28;20460;-88
2022/03/15 05:18:52;;;;;;;10.37;3.50;;;;;;;3.97;100.00;97152.69;4999208;28;20073;-88
2022/03/15 05:21:19;;;;;;;11.50;4.43;;;;;;;3.97;100.00;97147.47;5023382;28;20033;-88
2022/03/15 05:23:45;;;;;;;9.53;4.30;;;;;;;4.00;100.00;97147.28;5015278;28;20546;-87
2022/03/15 05:26:11;;;;;;;8.43;3.70;;;;;;;4.04;100.00;97142.72;5017296;28;20030;-87
2022/03/15 05:28:49;;;;;;;9.30;3.60;;;;;;;4.10;100.00;97137.97;5028460;28;20464;-87
2022/03/15 05:31:19;;;;;;;7.70;3.27;;;;;;;4.09;100.00;97140.66;5025681;28;20732;-88
2022/03/15 05:33:48;;;;;;;12.57;4.13;;;;;;;4.15;100.00;97141.09;4998792;28;20068;-87
2022/03/15 05:36:18;;;;;;;9.07;3.40;;;;;;;4.13;100.00;97147.34;5013857;28;20036;-87
2022/03/15 05:38:44;;;;;;;7.67;3.00;;;;;;;4.10;100.00;97150.16;5014469;28;20041;-87
2022/03/15 05:41:10;;;;;;;9.30;3.77;;;;;;;4.06;100.00;97146.03;5016065;28;20021;-87
2022/03/15 05:43:37;;;;;;;7.40;3.53;;;;;;;4.08;100.00;97145.03;5004523;28;20037;-86
2022/03/15 05:46:06;;;;;;;7.33;3.40;;;;;;;4.10;100.00;97150.97;5010843;28;20035;-87
2022/03/15 05:48:32;;;;;;;6.27;3.57;;;;;;;4.08;100.00;97149.41;5017883;28;20025;-87
2022/03/15 05:50:58;;;;;;;10.27;3.00;;;;;;;4.14;100.00;97143.81;5009830;28;20040;-87
2022/03/15 05:53:24;;;;;;;9.13;4.00;;;;;;;4.09;100.00;97145.84;5022321;28;20104;-87
2022/03/15 05:55:54;;;;;;;8.87;3.60;;;;;;;4.13;100.00;97142.16;5022398;28;20471;-87
2022/03/15 05:58:20;;;;;;;10.10;3.50;;;;;;;4.05;100.00;97149.59;5027483;28;20487;-87
2022/03/15 06:00:55;;;;;;;8.83;3.43;;;;;;;4.07;100.00;97147.72;5019293;28;20525;-87
2022/03/15 06:03:21;;;;;;;9.57;3.90;;;;;;;4.05;100.00;97154.78;5010531;28;20471;-87
2022/03/15 06:05:56;;;;;;;8.20;4.03;;;;;;;4.06;100.00;97149.50;5016294;28;20471;-87
2022/03/15 06:08:21;;;;;;;8.23;3.40;;;;;;;4.03;100.00;97146.25;4999846;28;20037;-87
2022/03/15 06:10:48;;;;;;;8.90;4.27;;;;;;;4.03;100.00;97152.31;5000023;28;20373;-87
2022/03/15 06:13:13;;;;;;;11.33;4.93;;;;;;;3.99;100.00;97145.59;5000850;28;20492;-87
2022/03/15 06:15:39;;;;;;;10.53;3.83;;;;;;;4.01;100.00;97138.53;4999890;28;20463;-86
2022/03/15 06:18:05;;;;;;;11.37;4.47;;;;;;;3.95;100.00;97144.13;5015406;28;20416;-86
2022/03/15 06:20:33;;;;;;;9.37;4.03;;;;;;;3.92;100.00;97145.16;5019692;28;20037;-86
2022/03/15 06:23:17;;;;;;;9.83;4.30;;;;;;;3.97;100.00;97142.28;5019608;28;20432;-86
2022/03/15 06:25:42;;;;;;;8.90;4.30;;;;;;;3.95;100.00;97138.91;5024633;28;20033;-87
2022/03/15 06:28:08;;;;;;;11.20;4.63;;;;;;;3.96;100.00;97138.84;5023784;28;20384;-86
2022/03/15 06:30:53;;;;;;;11.20;4.77;;;;;;;4.06;100.00;97130.44;5024408;28;20040;-87
2022/03/15 06:33:19;;;;;;;15.53;5.60;;;;;;;4.06;100.00;97114.81;5028205;28;20050;-86
2022/03/15 06:36:01;;;;;;;12.27;5.13;;;;;;;3.98;100.00;97118.72;5049534;28;20068;-86
2022/03/15 06:38:27;;;;;;;12.20;4.73;;;;;;;3.95;100.00;97113.72;5048239;28;20527;-86
2022/03/15 06:41:19;;;;;;;11.47;5.07;;;;;;;3.85;100.00;97119.59;5056165;28;20449;-87
2022/03/15 06:43:45;;;;;;;13.90;5.43;;;;;;;3.92;100.00;97106.13;5025235;28;21086;-86
2022/03/15 06:46:11;;;;;;;10.30;5.30;;;;;;;4.00;100.00;97109.06;5022562;28;20447;-87
2022/03/15 06:49:05;;;;;;;11.70;5.10;;;;;;;4.17;100.00;97112.38;5027424;28;20037;-86
2022/03/15 06:51:31;;;;;;;10.75;5.20;;;;;;;4.24;100.00;97113.66;5020273;28;20063;-87
2022/03/15 06:53:57;;;;;;;14.30;7.10;;;;;;;4.38;100.00;97112.75;5050726;28;20123;-87
2022/03/15 06:56:28;;;;;;;11.83;6.40;;;;;;;4.56;100.00;97110.72;5026502;28;20507;-86
2022/03/15 06:58:54;;;;;;;11.13;6.40;;;;;;;4.74;100.00;97127.75;5021380;28;20067;-86
2022/03/15 07:01:20;;;;;;;11.57;6.80;;;;;;;4.86;100.00;97121.75;5026033;28;20099;-86
2022/03/15 07:03:46;;;;;;;15.77;7.50;;;;;;;4.91;100.00;97118.81;5043426;28;20483;-87
2022/03/15 07:06:14;;;;;;;15.93;8.47;;;;;;;5.11;100.00;97130.50;5026060;28;20041;-87
2022/03/15 07:08:40;;;;;;;16.10;8.27;;;;;;;5.02;100.00;97134.56;5023177;28;20021;-87
2022/03/15 07:11:30;;;;;;;17.67;8.10;;;;;;;5.12;100.00;97132.19;5054208;28;20040;-86
2022/03/15 07:13:58;;;;;;;16.17;7.77;;;;;;;5.24;100.00;97130.53;5030859;28;20104;-86
2022/03/15 07:16:24;;;;;;;17.10;7.87;;;;;;;5.35;100.00;97128.00;5040320;28;20040;-87
2022/03/15 07:18:50;;;;;;;13.90;7.63;;;;;;;5.43;100.00;97136.13;5022395;28;20041;-86
2022/03/15 07:21:16;;;;;;;15.97;8.10;;;;;;;5.53;100.00;97133.72;5018716;28;20552;-87
2022/03/15 07:23:44;;;;;;;14.00;7.97;;;;;;;5.68;100.00;97125.69;5002789;28;20128;-87
2022/03/15 07:26:10;;;;;;;12.30;7.80;;;;;;;5.76;100.00;97129.53;5029497;28;20043;-86
2022/03/15 07:28:35;;;;;;;16.97;8.77;;;;;;;5.82;100.00;97126.50;5019379;28;20029;-87
2022/03/15 07:31:01;;;;;;;15.80;8.10;;;;;;;5.98;100.00;97124.50;5027886;28;20053;-86
2022/03/15 07:33:27;;;;;;;13.07;7.83;;;;;;;6.08;100.00;97127.28;5011696;28;20041;-86
2022/03/15 07:35:53;;;;;;;13.57;7.63;;;;;;;6.16;99.97;97124.13;5009154;28;20124;-87
2022/03/15 07:38:20;;;;;;;14.70;8.00;;;;;;;6.21;99.39;97117.63;5001847;28;20026;-86
2022/03/15 07:40:49;;;;;;;12.27;7.70;;;;;;;6.23;98.54;97122.75;5001940;28;20083;-87
2022/03/15 07:43:14;;;;;;;14.77;8.00;;;;;;;6.31;99.39;97121.25;5007737;28;20041;-87
2022/03/15 07:45:40;;;;;;;17.03;9.07;;;;;;;6.36;99.23;97132.19;5018250;28;20507;-87
2022/03/15 07:48:06;;;;;;;17.47;9.50;;;;;;;6.42;98.53;97130.09;5022051;28;20037;-86
2022/03/15 07:50:33;;;;;;;14.03;7.87;;;;;;;6.52;97.70;97133.69;5031995;28;20026;-86
2022/03/15 07:52:59;;;;;;;12.97;7.70;;;;;;;6.61;98.10;97125.19;5031896;28;20068;-87
2022/03/15 07:55:25;;;;;;;15.43;7.80;;;;;;;6.58;97.29;97120.19;5041920;28;20086;-86
2022/03/15 07:57:50;;;;;;;14.37;8.10;;;;;;;6.61;96.58;97120.78;5042273;28;20044;-87
2022/03/15 08:00:17;;;;;;;15.97;9.13;;;;;;;6.71;95.81;97117.50;5025647;28;20029;-87
2022/03/15 08:02:52;;;;;;;12.30;7.70;;;;;;;6.66;96.70;97111.78;5009444;28;20049;-87
2022/03/15 08:05:18;;;;;;;14.00;8.77;;;;;;;6.74;94.52;97112.88;5017191;28;20479;-86
2022/03/15 08:07:44;;;;;;;19.43;8.47;;;;;;;6.72;96.25;97114.78;5007453;28;20117;-87
2022/03/15 08:10:12;;;;;;;13.83;7.63;;;;;;;6.75;94.54;97103.25;5009647;28;20037;-86
2022/03/15 08:12:39;;;;;;;12.97;7.90;;;;;;;6.86;93.05;97098.06;5033351;28;20040;-87
2022/03/15 08:15:19;;;;;;;16.13;8.30;;;;;;;6.97;91.30;97094.63;5010354;28;20045;-87
2022/03/15 08:17:45;;;;;;;13.70;9.23;;;;;;;7.08;91.91;97094.66;5019724;28;20280;-86
2022/03/15 08:20:20;;;;;;;12.67;7.87;;;;;;;7.11;90.85;97089.22;5020333;28;20033;-86
2022/03/15 08:22:47;;;;;;;13.70;8.60;;;;;;;6.99;90.92;97083.09;5024333;28;20041;-86
2022/03/15 08:25:12;;;;;;;16.10;7.50;;;;;;;7.09;90.35;97072.78;5012574;28;20037;-86
2022/03/15 08:27:39;;;;;;;12.50;8.10;;;;;;;7.17;87.71;97088.72;5033407;28;20017;-87
2022/03/15 08:30:06;;;;;;;13.47;7.03;;;;;;;7.16;87.81;97091.47;5021529;28;20519;-87
2022/03/15 08:32:36;;;;;;;15.87;7.43;;;;;;;7.26;87.64;97088.03;5039720;28;20573;-86
2022/03/15 08:35:03;;;;;;;11.67;7.53;;;;;;;7.39;85.76;97092.31;5045143;28;20037;-86
2022/03/15 08:37:28;;;;;;;15.30;7.40;;;;;;;7.33;85.62;97083.97;5019918;28;20071;-87
2022/03/15 08:39:55;;;;;;;14.37;7.60;;;;;;;7.44;86.18;97082.31;5036659;28;20033;-87
2022/03/15 08:42:21;;;;;;;14.93;7.77;;;;;;;7.59;84.66;97081.13;5028554;28;20475;-86
2022/03/15 08:44:46;;;;;;;11.27;7.17;;;;;;;7.66;84.32;97077.06;5030829;28;20059;-86
2022/03/15 08:47:13;;;;;;;15.63;7.40;;;;;;;7.67;83.44;97068.25;5032721;28;20277;-86
2022/03/15 08:49:41;;;;;;;11.93;7.10;;;;;;;7.73;82.68;97065.16;5014017;28;20040;-86
2022/03/15 08:52:08;;;;;;;10.03;7.00;;;;;;;7.73;82.43;97069.56;5033997;28;20032;-87
2022/03/15 08:54:36;;;;;;;15.77;7.57;;;;;;;7.96;81.06;97073.00;5042831;28;20040;-86
2022/03/15 08:57:02;;;;;;;14.13;6.87;;;;;;;7.95;80.62;97068.72;5032250;28;20120;-87
2022/03/15 08:59:28;;;;;;;11.90;6.70;;;;;;;8.12;78.99;97068.19;5034949;28;20036;-87
2022/03/15 09:01:54;;;;;;;10.80;6.57;;;;;;;8.52;77.56;97049.25;5035505;28;20080;-87
2022/03/15 09:04:25;;;;;;;12.43;6.53;;;;;;;8.65;nan;97047.28;5029865;28;20025;-87
2022/03/15 09:06:51;;;;;;;10.73;6.40;;;;;;;9.03;75.09;97045.88;5018779;28;20032;-87
2022/03/15 09:09:24;;;;;;;12.27;7.43;;;;;;;9.43;72.14;97038.03;5038890;28;20025;-87
2022/03/15 09:11:51;;;;;;;11.33;6.70;;;;;;;9.32;70.71;97045.16;5047785;28;20384;-87
2022/03/15 09:14:17;;;;;;;13.20;6.13;;;;;;;9.43;70.14;97039.84;5039957;28;20025;-87
2022/03/15 09:16:42;;;;;;;10.17;5.83;;;;;;;9.66;69.42;97041.31;5012075;28;20110;-86
2022/03/15 09:19:10;;;;;;;10.17;5.60;;;;;;;9.65;69.20;97039.63;5018148;28;20055;-87
2022/03/15 09:21:35;;;;;;;10.37;6.10;;;;;;;9.49;70.21;97049.81;5031201;28;20119;-87
2022/03/15 09:24:02;;;;;;;11.50;6.13;;;;;;;9.51;69.28;97053.13;5021617;28;20498;-87
2022/03/15 09:26:28;;;;;;;10.23;5.83;;;;;;;9.58;68.29;97040.28;5020272;28;20040;-87
2022/03/15 09:28:53;;;;;;;9.03;5.40;;;;;;;9.74;68.68;97031.91;5014635;28;20038;-87
2022/03/15 09:31:24;;;;;;;10.40;5.70;;;;;;;10.01;67.26;97029.47;5005954;28;20034;-84
2022/03/15 09:33:50;;;;;;;11.27;7.07;;;;;;;9.90;67.61;97034.88;5023511;28;20035;-84
2022/03/15 09:36:15;;;;;;;11.23;5.17;;;;;;;10.06;66.38;97027.28;5012692;28;20017;-84
2022/03/15 09:38:43;;;;;;;8.77;5.13;;;;;;;10.19;66.81;97020.91;5028042;28;20037;-85
2022/03/15 09:41:09;;;;;;;9.43;5.03;;;;;;;10.11;64.87;97018.97;5052754;28;20478;-84
2022/03/15 09:43:42;;;;;;;9.93;5.20;;;;;;;10.10;64.76;97004.19;5039393;28;20025;-84
2022/03/15 09:46:09;;;;;;;12.10;5.60;;;;;;;10.31;64.66;96998.81;5007844;28;20044;-84
2022/03/15 09:48:35;;;;;;;8.83;4.73;;;;;;;10.31;63.63;97001.47;5018191;28;20039;-85
2022/03/15 09:51:06;;;;;;;10.40;4.73;;;;;;;10.32;61.71;97011.00;5040059;28;20033;-84
2022/03/15 09:53:36;;;;;;;9.67;4.80;;;;;;;10.29;61.97;97006.00;5015001;28;20107;-85
2022/03/15 09:56:03;;;;;;;10.10;4.57;;;;;;;10.50;61.99;96998.81;5049072;28;20079;-85
2022/03/15 09:58:29;;;;;;;10.10;4.60;;;;;;;10.51;62.36;96995.22;5018995;28;20053;-85
2022/03/15 10:00:57;;;;;;;8.50;4.53;;;;;;;10.42;62.15;96987.31;5036356;28;20047;-85
2022/03/15 10:03:26;;;;;;;9.30;4.70;;;;;;;10.62;61.26;96981.91;5015396;28;20033;-84
2022/03/15 10:05:53;;;;;;;10.90;5.57;;;;;;;10.71;64.76;96984.66;5010911;28;20139;-85
2022/03/15 10:08:20;;;;;;;13.67;6.50;;;;;;;10.73;66.50;96982.72;5044251;28;20047;-85
2022/03/15 10:10:52;;;;;;;10.00;5.87;;;;;;;10.64;68.33;96979.16;5047364;28;20033;-85
2022/03/15 10:13:18;;;;;;;9.80;6.07;;;;;;;10.31;67.86;96976.00;5021134;28;20033;-86
2022/03/15 10:16:01;;;;;;;9.70;6.10;;;;;;;10.43;67.39;96973.19;5020721;28;20327;-83
2022/03/15 10:18:27;;;;;;;9.50;6.30;;;;;;;10.68;68.06;96969.16;5029742;28;20303;-85
2022/03/15 10:20:55;;;;;;;8.90;5.90;;;;;;;10.48;66.66;96963.94;5026568;28;20022;-85
2022/03/15 10:23:29;;;;;;;10.30;5.50;;;;;;;10.60;64.41;96956.72;5059180;28;20369;-85
2022/03/15 10:25:57;;;;;;;9.57;5.93;;;;;;;10.52;64.62;96956.59;5035244;28;20029;-85
2022/03/15 10:28:25;;;;;;;10.03;5.40;;;;;;;10.60;64.19;96946.22;5035412;28;20098;-85
2022/03/15 10:30:51;;;;;;;9.10;4.60;;;;;;;10.50;62.70;96950.66;5018726;28;20100;-85
2022/03/15 10:33:23;;;;;;;8.87;4.80;;;;;;;10.43;61.92;96942.50;5056858;28;20068;-85
2022/03/15 10:35:50;;;;;;;11.50;5.10;;;;;;;10.37;61.98;96935.19;5028333;28;20395;-85
2022/03/15 10:38:17;;;;;;;8.00;4.83;;;;;;;10.29;61.41;96930.59;5039415;28;20035;-85
2022/03/15 10:40:49;;;;;;;7.53;4.60;;;;;;;10.34;62.20;96924.94;5036363;28;20091;-85
2022/03/15 10:43:21;;;;;;;9.30;4.90;;;;;;;10.27;62.54;96937.00;5012666;28;20414;-85
2022/03/15 10:45:57;;;;;;;9.53;4.97;;;;;;;10.47;62.83;96924.66;5008677;28;20048;-86
2022/03/15 10:48:32;;;;;;;13.13;5.17;;;;;;;10.21;62.80;96933.06;5029786;28;20116;-85
2022/03/15 10:51:04;;;;;;;9.07;4.90;;;;;;;10.26;62.60;96923.03;5015291;28;20067;-85
2022/03/15 10:53:45;;;;;;;9.95;4.60;;;;;;;10.59;61.91;96916.44;5015480;28;20123;-85
2022/03/15 10:56:13;;;;;;;10.23;5.07;;;;;;;10.56;62.47;96918.50;5045170;28;20056;-86
2022/03/15 10:59:01;;;;;;;8.80;4.67;;;;;;;10.74;61.54;96921.25;5011937;28;20138;-85
2022/03/15 11:01:28;;;;;;;8.40;4.27;;;;;;;10.55;62.36;96915.06;5022612;28;20087;-85
2022/03/15 11:03:58;;;;;;;8.43;4.40;;;;;;;10.34;63.33;96903.91;5007168;28;20579;-85
2022/03/15 11:06:39;;;;;;;8.53;4.40;;;;;;;10.48;64.05;96898.19;5032364;28;20041;-85
2022/03/15 11:09:25;;;;;;;9.60;5.03;;;;;;;10.67;63.46;96888.59;5026002;28;20037;-85
2022/03/15 11:12:00;;;;;;;7.40;4.67;;;;;;;10.77;63.48;96890.22;5018303;28;20036;-85
2022/03/15 11:14:36;;;;;;;8.87;5.10;;;;;;;10.81;64.11;96886.31;5024833;28;20037;-85
2022/03/15 11:17:06;;;;;;;11.27;4.70;;;;;;;10.74;63.50;96869.47;5037412;28;20032;-85
2022/03/15 11:19:35;;;;;;;10.93;5.30;;;;;;;10.64;63.80;96868.66;5054378;28;20029;-86
2022/03/15 11:22:01;;;;;;;9.67;4.03;;;;;;;10.59;65.37;96870.88;5053806;28;20029;-86
2022/03/15 11:24:33;;;;;;;9.07;4.80;;;;;;;10.55;65.44;96867.72;5053776;28;20027;-86
2022/03/15 11:27:00;;;;;;;15.27;10.60;;;;;;;10.57;66.42;96870.22;5055415;28;20406;-86
2022/03/15 11:29:27;;;;;;;14.10;8.33;;;;;;;10.60;65.59;96868.13;5037404;28;20033;-85
2022/03/15 11:31:55;;;;;;;32.60;24.17;;;;;;;10.60;69.04;96862.88;5033486;28;20040;-85
2022/03/15 11:34:22;;;;;;;11.00;5.63;;;;;;;10.70;68.51;96862.00;5029664;28;20029;-85
2022/03/15 11:36:49;;;;;;;10.27;5.70;;;;;;;10.56;71.08;96861.50;5050118;28;20032;-86
2022/03/15 11:39:15;;;;;;;8.53;4.93;;;;;;;10.53;72.71;96867.06;5035296;28;20772;-85